createdAt,value
2018-10-07T00:00:58.629Z,72.75
2018-10-07T00:01:58.781Z,69.82
2018-10-07T00:02:58.933Z,69.82
2018-10-07T00:03:59.085Z,72.51
2018-10-07T00:04:59.235Z,70.31
2018-10-07T00:05:59.384Z,71.29
2018-10-07T00:06:59.533Z,67.38
2018-10-07T00:07:59.688Z,71.53
2018-10-07T00:08:59.838Z,69.82
2018-10-07T00:09:59.988Z,69.09
2018-10-07T00:11:00.139Z,64.21
2018-10-07T00:12:00.289Z,71.53
2018-10-07T00:13:00.442Z,69.82
2018-10-07T00:14:00.592Z,66.41
2018-10-07T00:15:00.742Z,71.29
2018-10-07T00:16:00.893Z,68.85
2018-10-07T00:17:01.044Z,69.34
2018-10-07T00:18:01.195Z,70.07
2018-10-07T00:19:01.346Z,71.53
2018-10-07T00:20:01.494Z,70.56
2018-10-07T00:21:01.644Z,70.56
2018-10-07T00:22:01.797Z,68.60
2018-10-07T00:23:01.948Z,67.87
2018-10-07T00:24:02.099Z,66.41
2018-10-07T00:25:02.247Z,69.34
2018-10-07T00:26:02.399Z,69.34
2018-10-07T00:27:02.549Z,68.85
2018-10-07T00:28:02.703Z,65.67
2018-10-07T00:29:02.855Z,65.92
2018-10-07T00:30:03.005Z,65.92
2018-10-07T00:31:03.154Z,70.56
2018-10-07T00:32:03.304Z,68.36
2018-10-07T00:33:03.455Z,61.28
2018-10-07T00:34:03.609Z,65.92
2018-10-07T00:35:03.754Z,70.07
2018-10-07T00:36:03.904Z,68.85
2018-10-07T00:37:04.056Z,61.52
2018-10-07T00:38:04.203Z,68.60
2018-10-07T00:39:04.354Z,70.31
2018-10-07T00:40:04.503Z,73.49
2018-10-07T00:41:04.654Z,69.58
2018-10-07T00:42:04.803Z,70.56
2018-10-07T00:43:04.955Z,74.71
2018-10-07T00:44:05.105Z,69.09
2018-10-07T00:45:05.258Z,65.67
2018-10-07T00:46:05.404Z,71.04
2018-10-07T00:47:05.557Z,71.29
2018-10-07T00:48:05.703Z,69.34
2018-10-07T00:49:05.854Z,69.34
2018-10-07T00:50:06.008Z,62.50
2018-10-07T00:51:06.152Z,71.78
2018-10-07T00:52:06.302Z,71.78
2018-10-07T00:53:06.457Z,72.02
2018-10-07T00:54:06.608Z,67.14
2018-10-07T00:55:06.756Z,70.56
2018-10-07T00:56:06.920Z,72.27
2018-10-07T00:57:07.056Z,67.87
2018-10-07T00:58:07.207Z,66.65
2018-10-07T00:59:07.356Z,54.20
2018-10-07T01:00:07.507Z,69.82
2018-10-07T01:01:07.660Z,66.16
2018-10-07T01:02:07.813Z,67.63
2018-10-07T01:03:07.961Z,70.56
2018-10-07T01:04:08.110Z,70.56
2018-10-07T01:05:08.259Z,67.14
2018-10-07T01:06:08.411Z,70.80
2018-10-07T01:07:08.563Z,70.07
2018-10-07T01:08:08.711Z,65.67
2018-10-07T01:09:08.889Z,69.82
2018-10-07T01:10:09.008Z,68.85
2018-10-07T01:11:09.157Z,69.34
2018-10-07T01:12:09.308Z,69.58
2018-10-07T01:13:09.460Z,51.76
2018-10-07T01:14:09.607Z,67.63
2018-10-07T01:15:09.757Z,67.87
2018-10-07T01:16:09.906Z,70.31
2018-10-07T01:17:10.057Z,66.89
2018-10-07T01:18:10.205Z,68.12
2018-10-07T01:19:10.355Z,66.16
2018-10-07T01:20:10.507Z,69.82
2018-10-07T01:21:10.653Z,68.85
2018-10-07T01:22:10.805Z,69.58
2018-10-07T01:23:10.955Z,70.80
2018-10-07T01:24:11.106Z,69.09
2018-10-07T01:25:11.255Z,73.49
2018-10-07T01:26:11.410Z,70.07
2018-10-07T01:27:11.559Z,70.07
2018-10-07T01:28:11.736Z,67.63
2018-10-07T01:29:11.885Z,69.82
2018-10-07T01:30:12.035Z,70.80
2018-10-07T01:31:12.185Z,67.38
2018-10-07T01:32:12.336Z,69.82
2018-10-07T01:33:12.484Z,55.42
2018-10-07T01:34:12.636Z,70.31
2018-10-07T01:35:12.786Z,68.36
2018-10-07T01:36:12.935Z,68.60
2018-10-07T01:37:13.085Z,65.92
2018-10-07T01:38:13.234Z,69.82
2018-10-07T01:39:13.384Z,69.82
2018-10-07T01:40:13.535Z,69.09
2018-10-07T01:41:13.689Z,75.68
2018-10-07T01:42:13.839Z,73.24
2018-10-07T01:43:13.991Z,76.90
2018-10-07T01:44:14.138Z,69.34
2018-10-07T01:45:14.286Z,69.09
2018-10-07T01:46:14.439Z,75.68
2018-10-07T01:47:14.587Z,69.34
2018-10-07T01:48:14.736Z,68.36
2018-10-07T01:49:14.887Z,67.14
2018-10-07T01:50:15.035Z,71.78
2018-10-07T01:51:15.185Z,66.65
2018-10-07T01:52:15.334Z,63.23
2018-10-07T01:53:15.484Z,70.80
2018-10-07T01:54:15.638Z,66.41
2018-10-07T01:55:15.784Z,67.63
2018-10-07T01:56:15.937Z,66.89
2018-10-07T01:57:16.084Z,69.09
2018-10-07T01:58:16.231Z,70.07
2018-10-07T01:59:16.389Z,72.27
2018-10-07T02:00:16.523Z,71.53
2018-10-07T02:01:16.685Z,69.34
2018-10-07T02:02:16.835Z,68.60
2018-10-07T02:03:16.986Z,68.36
2018-10-07T02:04:17.136Z,71.04
2018-10-07T02:05:17.286Z,68.12
2018-10-07T02:06:17.436Z,69.82
2018-10-07T02:07:17.585Z,68.60
2018-10-07T02:08:17.733Z,70.80
2018-10-07T02:09:17.883Z,69.34
2018-10-07T02:10:18.035Z,71.53
2018-10-07T02:11:18.186Z,65.92
2018-10-07T02:12:18.333Z,66.89
2018-10-07T02:13:18.485Z,59.81
2018-10-07T02:14:18.636Z,71.29
2018-10-07T02:15:18.783Z,68.60
2018-10-07T02:16:18.938Z,65.43
2018-10-07T02:17:19.092Z,67.87
2018-10-07T02:18:19.237Z,65.92
2018-10-07T02:19:19.387Z,66.89
2018-10-07T02:20:19.534Z,49.56
2018-10-07T02:21:19.688Z,69.34
2018-10-07T02:22:19.835Z,70.80
2018-10-07T02:23:19.982Z,68.60
2018-10-07T02:24:20.133Z,68.36
2018-10-07T02:25:20.286Z,67.63
2018-10-07T02:26:20.434Z,61.04
2018-10-07T02:27:20.584Z,70.07
2018-10-07T02:28:20.733Z,71.29
2018-10-07T02:29:20.884Z,70.31
2018-10-07T02:30:21.035Z,68.36
2018-10-07T02:31:21.183Z,68.85
2018-10-07T02:32:21.338Z,67.87
2018-10-07T02:33:21.485Z,68.60
2018-10-07T02:34:21.633Z,69.09
2018-10-07T02:35:21.781Z,69.82
2018-10-07T02:36:21.931Z,70.56
2018-10-07T02:37:22.081Z,70.80
2018-10-07T02:38:22.233Z,67.38
2018-10-07T02:39:22.379Z,66.41
2018-10-07T02:40:22.531Z,68.60
2018-10-07T02:41:22.676Z,71.53
2018-10-07T02:42:22.825Z,70.80
2018-10-07T02:43:22.997Z,66.65
2018-10-07T02:44:23.124Z,67.38
2018-10-07T02:45:23.273Z,70.31
2018-10-07T02:46:23.423Z,60.79
2018-10-07T02:47:23.572Z,71.78
2018-10-07T02:48:23.721Z,70.80
2018-10-07T02:49:23.868Z,68.36
2018-10-07T02:50:24.016Z,68.60
2018-10-07T02:51:24.181Z,73.73
2018-10-07T02:52:24.472Z,69.58
2018-10-07T02:53:24.605Z,69.34
2018-10-07T02:54:24.696Z,71.53
2018-10-07T02:55:24.848Z,68.36
2018-10-07T02:56:24.996Z,73.24
2018-10-07T02:57:25.145Z,68.36
2018-10-07T02:58:25.295Z,60.06
2018-10-07T02:59:25.469Z,68.85
2018-10-07T03:00:25.595Z,68.85
2018-10-07T03:01:25.751Z,68.85
2018-10-07T03:02:25.900Z,66.65
2018-10-07T03:03:26.046Z,65.19
2018-10-07T03:04:26.209Z,67.14
2018-10-07T03:05:26.345Z,68.85
2018-10-07T03:06:26.495Z,71.53
2018-10-07T03:07:26.641Z,51.27
2018-10-07T03:08:26.792Z,69.58
2018-10-07T03:09:26.942Z,69.82
2018-10-07T03:10:27.089Z,69.34
2018-10-07T03:11:27.238Z,71.53
2018-10-07T03:12:27.388Z,69.82
2018-10-07T03:13:27.538Z,71.29
2018-10-07T03:14:27.684Z,66.65
2018-10-07T03:15:27.838Z,70.31
2018-10-07T03:16:27.984Z,66.41
2018-10-07T03:17:28.133Z,68.36
2018-10-07T03:18:28.283Z,70.80
2018-10-07T03:19:28.435Z,71.78
2018-10-07T03:20:28.585Z,69.09
2018-10-07T03:21:28.733Z,69.82
2018-10-07T03:22:28.881Z,68.60
2018-10-07T03:23:29.032Z,66.65
2018-10-07T03:24:29.184Z,71.29
2018-10-07T03:25:29.335Z,70.31
2018-10-07T03:26:29.472Z,71.04
2018-10-07T03:27:29.622Z,75.93
2018-10-07T03:28:29.772Z,72.51
2018-10-07T03:29:29.997Z,68.60
2018-10-07T03:30:30.069Z,67.87
2018-10-07T03:31:30.216Z,71.78
2018-10-07T03:32:30.364Z,67.38
2018-10-07T03:33:30.512Z,69.34
2018-10-07T03:34:30.663Z,70.31
2018-10-07T03:35:30.813Z,69.82
2018-10-07T03:36:30.964Z,68.12
2018-10-07T03:37:31.119Z,71.78
2018-10-07T03:38:31.258Z,72.75
2018-10-07T03:39:31.406Z,71.78
2018-10-07T03:40:31.556Z,69.82
2018-10-07T03:41:31.706Z,69.34
2018-10-07T03:42:31.854Z,71.78
2018-10-07T03:43:32.004Z,70.80
2018-10-07T03:44:32.154Z,70.80
2018-10-07T03:45:32.302Z,70.56
2018-10-07T03:46:32.453Z,68.12
2018-10-07T03:47:32.594Z,68.85
2018-10-07T03:48:32.741Z,69.34
2018-10-07T03:49:32.888Z,70.31
2018-10-07T03:50:33.038Z,68.36
2018-10-07T03:51:33.186Z,70.56
2018-10-07T03:52:33.334Z,70.80
2018-10-07T03:53:33.487Z,69.58
2018-10-07T03:54:33.634Z,74.71
2018-10-07T03:55:33.782Z,67.38
2018-10-07T03:56:33.931Z,67.38
2018-10-07T03:57:34.079Z,69.34
2018-10-07T03:58:34.228Z,70.31
2018-10-07T03:59:34.380Z,69.09
2018-10-07T04:00:34.527Z,70.56
2018-10-07T04:01:34.676Z,70.56
2018-10-07T04:02:34.828Z,68.85
2018-10-07T04:03:34.978Z,70.56
2018-10-07T04:04:35.122Z,68.85
2018-10-07T04:05:35.274Z,69.58
2018-10-07T04:06:35.419Z,69.34
2018-10-07T04:07:35.569Z,70.56
2018-10-07T04:08:35.718Z,67.63
2018-10-07T04:09:35.864Z,69.09
2018-10-07T04:10:36.015Z,67.38
2018-10-07T04:11:36.170Z,69.82
2018-10-07T04:12:36.313Z,69.34
2018-10-07T04:13:36.462Z,62.50
2018-10-07T04:14:36.611Z,71.04
2018-10-07T04:15:36.762Z,69.34
2018-10-07T04:16:36.911Z,69.34
2018-10-07T04:17:37.063Z,70.56
2018-10-07T04:18:37.213Z,67.14
2018-10-07T04:19:37.364Z,70.80
2018-10-07T04:20:37.507Z,72.27
2018-10-07T04:21:37.657Z,70.80
2018-10-07T04:22:37.804Z,71.53
2018-10-07T04:23:37.958Z,70.80
2018-10-07T04:24:38.100Z,67.87
2018-10-07T04:25:38.251Z,68.85
2018-10-07T04:26:38.401Z,70.31
2018-10-07T04:27:38.547Z,71.29
2018-10-07T04:28:38.697Z,71.78
2018-10-07T04:29:38.844Z,72.51
2018-10-07T04:30:38.996Z,74.71
2018-10-07T04:31:39.147Z,72.02
2018-10-07T04:32:39.294Z,71.04
2018-10-07T04:33:39.442Z,73.73
2018-10-07T04:34:39.599Z,73.97
2018-10-07T04:35:39.743Z,71.29
2018-10-07T04:36:39.888Z,67.87
2018-10-07T04:37:40.078Z,72.27
2018-10-07T04:38:40.186Z,70.07
2018-10-07T04:39:40.372Z,70.80
2018-10-07T04:40:40.485Z,65.19
2018-10-07T04:41:40.633Z,69.82
2018-10-07T04:42:40.781Z,68.36
2018-10-07T04:43:40.928Z,74.95
2018-10-07T04:44:41.081Z,70.31
2018-10-07T04:45:41.229Z,69.34
2018-10-07T04:46:41.381Z,67.87
2018-10-07T04:47:41.527Z,70.80
2018-10-07T04:48:41.676Z,69.82
2018-10-07T04:49:41.816Z,70.80
2018-10-07T04:50:41.962Z,67.14
2018-10-07T04:51:42.108Z,69.58
2018-10-07T04:52:42.267Z,71.29
2018-10-07T04:53:42.407Z,73.24
2018-10-07T04:54:42.554Z,72.51
2018-10-07T04:55:42.703Z,70.80
2018-10-07T04:56:42.851Z,71.04
2018-10-07T04:57:43.002Z,70.56
2018-10-07T04:58:43.149Z,70.56
2018-10-07T04:59:43.298Z,70.56
2018-10-07T05:00:43.448Z,70.80
2018-10-07T05:01:43.597Z,73.49
2018-10-07T05:02:43.745Z,70.31
2018-10-07T05:03:43.897Z,71.29
2018-10-07T05:04:44.044Z,71.04
2018-10-07T05:05:44.193Z,67.87
2018-10-07T05:06:44.350Z,64.94
2018-10-07T05:07:44.499Z,70.80
2018-10-07T05:08:44.648Z,74.71
2018-10-07T05:09:44.800Z,71.53
2018-10-07T05:10:44.948Z,71.78
2018-10-07T05:11:45.096Z,68.36
2018-10-07T05:12:45.319Z,70.80
2018-10-07T05:13:45.395Z,71.53
2018-10-07T05:14:45.543Z,70.31
2018-10-07T05:15:45.693Z,70.31
2018-10-07T05:16:45.841Z,70.56
2018-10-07T05:17:45.991Z,74.22
2018-10-07T05:18:46.137Z,70.07
2018-10-07T05:19:46.287Z,70.31
2018-10-07T05:20:46.446Z,72.27
2018-10-07T05:21:46.585Z,70.07
2018-10-07T05:22:46.733Z,70.80
2018-10-07T05:23:46.883Z,69.82
2018-10-07T05:24:47.032Z,69.09
2018-10-07T05:25:47.180Z,68.85
2018-10-07T05:26:47.328Z,71.29
2018-10-07T05:27:47.478Z,70.31
2018-10-07T05:28:47.629Z,74.95
2018-10-07T05:29:47.777Z,69.09
2018-10-07T05:30:47.929Z,73.00
2018-10-07T05:31:48.075Z,69.82
2018-10-07T05:32:48.225Z,70.07
2018-10-07T05:33:48.374Z,70.31
2018-10-07T05:34:48.525Z,71.53
2018-10-07T05:35:48.674Z,71.04
2018-10-07T05:36:48.823Z,72.02
2018-10-07T05:37:48.974Z,71.04
2018-10-07T05:38:49.121Z,72.51
2018-10-07T05:39:49.271Z,69.58
2018-10-07T05:40:49.422Z,72.75
2018-10-07T05:41:49.569Z,74.46
2018-10-07T05:42:49.717Z,69.58
2018-10-07T05:43:49.868Z,73.24
2018-10-07T05:44:50.117Z,73.73
2018-10-07T05:45:50.165Z,70.07
2018-10-07T05:46:50.314Z,73.24
2018-10-07T05:47:50.464Z,71.29
2018-10-07T05:48:50.616Z,71.78
2018-10-07T05:49:50.764Z,69.58
2018-10-07T05:50:50.912Z,72.75
2018-10-07T05:51:51.068Z,71.04
2018-10-07T05:52:51.209Z,70.07
2018-10-07T05:53:51.360Z,72.02
2018-10-07T05:54:51.510Z,72.27
2018-10-07T05:55:51.717Z,72.02
2018-10-07T05:56:51.809Z,70.80
2018-10-07T05:57:51.959Z,71.78
2018-10-07T05:58:52.113Z,70.56
2018-10-07T05:59:52.263Z,71.29
2018-10-07T06:00:52.412Z,70.56
2018-10-07T06:01:52.626Z,73.97
2018-10-07T06:02:52.714Z,70.07
2018-10-07T06:03:52.861Z,69.82
2018-10-07T06:04:53.012Z,68.85
2018-10-07T06:05:53.161Z,71.04
2018-10-07T06:06:53.313Z,70.80
2018-10-07T06:07:53.463Z,70.80
2018-10-07T06:08:53.607Z,70.80
2018-10-07T06:09:53.760Z,70.80
2018-10-07T06:10:53.904Z,69.82
2018-10-07T06:11:54.052Z,72.51
2018-10-07T06:12:54.200Z,71.78
2018-10-07T06:13:54.354Z,71.78
2018-10-07T06:14:54.595Z,76.90
2018-10-07T06:15:54.650Z,72.75
2018-10-07T06:16:54.890Z,72.02
2018-10-07T06:17:55.137Z,69.82
2018-10-07T06:18:55.133Z,70.56
2018-10-07T06:19:55.396Z,71.78
2018-10-07T06:20:55.336Z,69.82
2018-10-07T06:21:55.503Z,71.53
2018-10-07T06:22:55.727Z,71.29
2018-10-07T06:23:55.748Z,74.22
2018-10-07T06:24:55.896Z,69.58
2018-10-07T06:25:56.046Z,70.07
2018-10-07T06:26:56.196Z,71.78
2018-10-07T06:27:56.345Z,71.29
2018-10-07T06:28:56.506Z,70.80
2018-10-07T06:29:56.737Z,73.49
2018-10-07T06:30:56.802Z,70.56
2018-10-07T06:31:56.954Z,73.24
2018-10-07T06:32:57.107Z,70.56
2018-10-07T06:33:57.256Z,70.31
2018-10-07T06:34:57.406Z,71.04
2018-10-07T06:35:57.552Z,71.04
2018-10-07T06:36:57.699Z,73.97
2018-10-07T06:37:57.849Z,73.97
2018-10-07T06:38:58.001Z,72.51
2018-10-07T06:39:58.222Z,70.80
2018-10-07T06:40:58.305Z,70.80
2018-10-07T06:41:58.450Z,69.82
2018-10-07T06:42:58.600Z,71.78
2018-10-07T06:43:58.749Z,72.27
2018-10-07T06:44:58.900Z,73.73
2018-10-07T06:45:59.111Z,72.02
2018-10-07T06:46:59.202Z,70.80
2018-10-07T06:47:59.353Z,72.75
2018-10-07T06:48:59.506Z,69.82
2018-10-07T06:49:59.654Z,73.49
2018-10-07T06:50:59.801Z,71.53
2018-10-07T06:51:59.949Z,71.53
2018-10-07T06:53:00.103Z,72.75
2018-10-07T06:54:00.253Z,74.22
2018-10-07T06:55:00.413Z,71.78
2018-10-07T06:56:00.563Z,69.82
2018-10-07T06:57:00.712Z,69.34
2018-10-07T06:58:00.862Z,71.29
2018-10-07T06:59:01.015Z,71.78
2018-10-07T07:00:01.192Z,72.51
2018-10-07T07:01:01.315Z,72.51
2018-10-07T07:02:01.468Z,70.80
2018-10-07T07:03:01.626Z,70.80
2018-10-07T07:04:01.924Z,75.20
2018-10-07T07:05:01.979Z,71.29
2018-10-07T07:06:02.129Z,73.49
2018-10-07T07:07:02.277Z,75.68
2018-10-07T07:08:02.443Z,72.51
2018-10-07T07:09:02.607Z,72.75
2018-10-07T07:10:02.757Z,74.46
2018-10-07T07:11:02.907Z,71.04
2018-10-07T07:12:03.056Z,71.78
2018-10-07T07:13:03.292Z,73.24
2018-10-07T07:14:03.360Z,72.51
2018-10-07T07:15:03.510Z,72.27
2018-10-07T07:16:03.662Z,73.00
2018-10-07T07:17:03.813Z,72.02
2018-10-07T07:18:03.963Z,71.78
2018-10-07T07:19:04.111Z,73.49
2018-10-07T07:20:04.297Z,73.24
2018-10-07T07:21:04.414Z,72.02
2018-10-07T07:22:04.565Z,71.29
2018-10-07T07:23:04.714Z,71.78
2018-10-07T07:24:04.865Z,72.02
2018-10-07T07:25:05.016Z,71.53
2018-10-07T07:26:05.212Z,71.78
2018-10-07T07:27:05.314Z,72.27
2018-10-07T07:28:05.463Z,71.04
2018-10-07T07:29:05.613Z,70.80
2018-10-07T07:30:05.765Z,72.75
2018-10-07T07:31:05.917Z,72.75
2018-10-07T07:32:06.068Z,73.49
2018-10-07T07:33:06.219Z,72.75
2018-10-07T07:34:06.369Z,71.04
2018-10-07T07:35:06.521Z,72.75
2018-10-07T07:36:06.672Z,72.27
2018-10-07T07:37:06.822Z,71.04
2018-10-07T07:38:06.973Z,71.78
2018-10-07T07:39:07.125Z,73.49
2018-10-07T07:40:07.275Z,72.02
2018-10-07T07:41:07.425Z,71.04
2018-10-07T07:42:07.593Z,72.27
2018-10-07T07:43:07.728Z,72.02
2018-10-07T07:44:07.879Z,72.51
2018-10-07T07:45:08.033Z,71.78
2018-10-07T07:46:08.197Z,73.00
2018-10-07T07:47:08.345Z,72.02
2018-10-07T07:48:08.497Z,72.51
2018-10-07T07:49:08.712Z,72.02
2018-10-07T07:50:08.798Z,72.75
2018-10-07T07:51:08.951Z,70.56
2018-10-07T07:52:09.101Z,73.00
2018-10-07T07:53:09.252Z,71.29
2018-10-07T07:54:09.410Z,73.97
2018-10-07T07:55:09.558Z,72.02
2018-10-07T07:56:09.707Z,70.80
2018-10-07T07:57:09.865Z,70.56
2018-10-07T07:58:10.015Z,79.59
2018-10-07T07:59:10.156Z,73.24
2018-10-07T08:00:10.305Z,70.80
2018-10-07T08:01:10.482Z,73.73
2018-10-07T08:02:10.601Z,88.13
2018-10-07T08:03:10.752Z,89.11
2018-10-07T08:04:10.905Z,88.62
2018-10-07T08:05:11.056Z,73.73
2018-10-07T08:06:11.208Z,81.05
2018-10-07T08:07:11.359Z,82.03
2018-10-07T08:08:11.512Z,83.25
2018-10-07T08:09:11.664Z,73.73
2018-10-07T08:10:11.840Z,73.49
2018-10-07T08:11:11.961Z,74.95
2018-10-07T08:12:12.113Z,76.90
2018-10-07T08:13:12.265Z,82.52
2018-10-07T08:14:12.421Z,72.75
2018-10-07T08:15:12.570Z,72.27
2018-10-07T08:16:12.722Z,73.00
2018-10-07T08:17:12.919Z,73.73
2018-10-07T08:18:13.026Z,72.75
2018-10-07T08:19:13.183Z,71.04
2018-10-07T08:20:13.328Z,72.51
2018-10-07T08:21:13.503Z,73.49
2018-10-07T08:22:13.637Z,73.00
2018-10-07T08:23:13.798Z,74.95
2018-10-07T08:24:13.938Z,73.97
2018-10-07T08:25:14.093Z,74.22
2018-10-07T08:26:14.244Z,74.22
2018-10-07T08:27:14.396Z,73.00
2018-10-07T08:28:14.549Z,73.73
2018-10-07T08:29:14.699Z,72.75
2018-10-07T08:30:14.853Z,72.75
2018-10-07T08:31:15.003Z,71.29
2018-10-07T08:32:15.169Z,71.78
2018-10-07T08:33:15.300Z,72.51
2018-10-07T08:34:15.449Z,71.53
2018-10-07T08:35:15.652Z,73.49
2018-10-07T08:36:15.753Z,72.51
2018-10-07T08:37:15.903Z,72.51
2018-10-07T08:38:16.061Z,73.49
2018-10-07T08:39:16.207Z,72.51
2018-10-07T08:40:16.356Z,72.51
2018-10-07T08:41:16.509Z,73.49
2018-10-07T08:42:16.661Z,72.75
2018-10-07T08:43:16.813Z,73.49
2018-10-07T08:44:16.967Z,73.97
2018-10-07T08:45:17.119Z,72.75
2018-10-07T08:46:17.272Z,73.97
2018-10-07T08:47:17.423Z,80.57
2018-10-07T08:48:17.573Z,73.49
2018-10-07T08:49:17.726Z,73.73
2018-10-07T08:50:17.881Z,75.68
2018-10-07T08:51:18.034Z,76.17
2018-10-07T08:52:18.187Z,74.22
2018-10-07T08:53:18.339Z,74.22
2018-10-07T08:54:18.493Z,73.97
2018-10-07T08:55:18.646Z,74.71
2018-10-07T08:56:18.805Z,75.20
2018-10-07T08:57:18.954Z,74.46
2018-10-07T08:58:19.104Z,74.46
2018-10-07T08:59:19.255Z,72.27
2018-10-07T09:00:19.405Z,74.22
2018-10-07T09:01:19.556Z,73.73
2018-10-07T09:02:19.710Z,74.46
2018-10-07T09:03:19.863Z,77.39
2018-10-07T09:04:20.016Z,74.22
2018-10-07T09:05:20.170Z,74.71
2018-10-07T09:06:20.309Z,75.44
2018-10-07T09:07:20.463Z,82.28
2018-10-07T09:08:20.615Z,76.66
2018-10-07T09:09:20.767Z,75.93
2018-10-07T09:10:20.921Z,75.68
2018-10-07T09:11:21.073Z,75.44
2018-10-07T09:12:21.226Z,77.15
2018-10-07T09:13:21.375Z,75.68
2018-10-07T09:14:21.527Z,76.42
2018-10-07T09:15:21.678Z,76.90
2018-10-07T09:16:21.832Z,74.71
2018-10-07T09:17:21.986Z,75.68
2018-10-07T09:18:22.138Z,75.68
2018-10-07T09:19:22.290Z,75.44
2018-10-07T09:20:22.441Z,75.68
2018-10-07T09:21:22.590Z,75.20
2018-10-07T09:22:22.741Z,75.44
2018-10-07T09:23:22.892Z,75.44
2018-10-07T09:24:23.044Z,74.46
2018-10-07T09:25:23.198Z,77.15
2018-10-07T09:26:23.349Z,75.44
2018-10-07T09:27:23.687Z,74.46
2018-10-07T09:28:23.650Z,75.93
2018-10-07T09:29:23.802Z,75.68
2018-10-07T09:30:23.953Z,75.44
2018-10-07T09:31:24.108Z,75.20
2018-10-07T09:32:24.324Z,75.93
2018-10-07T09:33:24.406Z,75.68
2018-10-07T09:34:24.558Z,75.93
2018-10-07T09:35:24.708Z,75.20
2018-10-07T09:36:24.861Z,74.71
2018-10-07T09:37:25.015Z,75.20
2018-10-07T09:38:25.164Z,75.44
2018-10-07T09:39:25.359Z,76.90
2018-10-07T09:40:25.466Z,75.68
2018-10-07T09:41:25.626Z,75.20
2018-10-07T09:42:25.781Z,74.95
2018-10-07T09:43:25.929Z,75.93
2018-10-07T09:44:26.076Z,75.68
2018-10-07T09:45:26.227Z,74.95
2018-10-07T09:46:26.378Z,74.71
2018-10-07T09:47:26.531Z,74.71
2018-10-07T09:48:26.682Z,76.90
2018-10-07T09:49:26.834Z,74.95
2018-10-07T09:50:26.987Z,76.42
2018-10-07T09:51:27.136Z,74.22
2018-10-07T09:52:27.329Z,78.13
2018-10-07T09:53:27.440Z,74.95
2018-10-07T09:54:27.601Z,75.44
2018-10-07T09:55:27.754Z,74.71
2018-10-07T09:56:27.901Z,75.44
2018-10-07T09:57:28.056Z,73.73
2018-10-07T09:58:28.221Z,74.22
2018-10-07T09:59:28.351Z,76.17
2018-10-07T10:00:28.505Z,74.71
2018-10-07T10:01:28.657Z,74.22
2018-10-07T10:02:28.807Z,74.22
2018-10-07T10:03:28.956Z,74.71
2018-10-07T10:04:29.173Z,73.73
2018-10-07T10:05:29.260Z,75.44
2018-10-07T10:06:29.415Z,73.73
2018-10-07T10:07:29.562Z,74.22
2018-10-07T10:08:29.712Z,74.46
2018-10-07T10:09:29.865Z,75.20
2018-10-07T10:10:30.013Z,73.97
2018-10-07T10:11:30.167Z,74.22
2018-10-07T10:12:30.317Z,73.00
2018-10-07T10:13:30.470Z,75.20
2018-10-07T10:14:30.641Z,76.17
2018-10-07T10:15:30.783Z,74.71
2018-10-07T10:16:30.930Z,77.15
2018-10-07T10:17:31.099Z,74.95
2018-10-07T10:18:31.237Z,74.46
2018-10-07T10:19:31.409Z,73.73
2018-10-07T10:20:31.543Z,75.20
2018-10-07T10:21:31.692Z,74.95
2018-10-07T10:22:31.849Z,74.95
2018-10-07T10:23:31.987Z,75.20
2018-10-07T10:24:32.142Z,74.22
2018-10-07T10:25:32.298Z,73.73
2018-10-07T10:26:32.443Z,75.44
2018-10-07T10:27:32.592Z,74.71
2018-10-07T10:28:32.741Z,75.20
2018-10-07T10:29:32.891Z,74.46
2018-10-07T10:30:33.043Z,74.46
2018-10-07T10:31:33.195Z,73.73
2018-10-07T10:32:33.350Z,75.20
2018-10-07T10:33:33.497Z,75.20
2018-10-07T10:34:33.654Z,74.46
2018-10-07T10:35:33.805Z,76.42
2018-10-07T10:36:33.962Z,74.71
2018-10-07T10:37:34.114Z,75.20
2018-10-07T10:38:34.262Z,77.39
2018-10-07T10:39:34.533Z,75.20
2018-10-07T10:40:34.572Z,74.71
2018-10-07T10:41:34.731Z,74.95
2018-10-07T10:42:34.882Z,74.95
2018-10-07T10:43:35.035Z,74.22
2018-10-07T10:44:35.184Z,74.46
2018-10-07T10:45:35.339Z,74.71
2018-10-07T10:46:35.486Z,75.68
2018-10-07T10:47:35.636Z,75.68
2018-10-07T10:48:35.789Z,75.20
2018-10-07T10:49:35.940Z,75.68
2018-10-07T10:50:36.101Z,75.93
2018-10-07T10:51:36.248Z,75.93
2018-10-07T10:52:36.398Z,75.44
2018-10-07T10:53:36.554Z,75.20
2018-10-07T10:54:36.714Z,75.68
2018-10-07T10:55:36.885Z,75.44
2018-10-07T10:56:37.050Z,76.17
2018-10-07T10:57:37.200Z,75.20
2018-10-07T10:58:37.350Z,74.71
2018-10-07T10:59:37.503Z,77.15
2018-10-07T11:00:37.663Z,75.44
2018-10-07T11:01:37.814Z,77.64
2018-10-07T11:02:38.013Z,76.17
2018-10-07T11:03:38.167Z,81.05
2018-10-07T11:04:38.514Z,77.39
2018-10-07T11:05:38.487Z,75.93
2018-10-07T11:06:38.642Z,74.95
2018-10-07T11:07:38.792Z,75.20
2018-10-07T11:08:38.948Z,76.42
2018-10-07T11:09:39.099Z,76.90
2018-10-07T11:10:39.248Z,74.46
2018-10-07T11:11:39.399Z,75.93
2018-10-07T11:12:39.552Z,78.13
2018-10-07T11:13:39.747Z,75.68
2018-10-07T11:14:39.890Z,75.44
2018-10-07T11:15:40.091Z,82.52
2018-10-07T11:16:40.215Z,75.44
2018-10-07T11:17:40.356Z,75.44
2018-10-07T11:18:40.513Z,75.44
2018-10-07T11:19:40.670Z,75.93
2018-10-07T11:20:40.833Z,75.44
2018-10-07T11:21:40.984Z,74.71
2018-10-07T11:22:41.140Z,75.68
2018-10-07T11:23:41.374Z,76.17
2018-10-07T11:24:41.398Z,75.68
2018-10-07T11:25:41.564Z,75.68
2018-10-07T11:26:41.715Z,76.66
2018-10-07T11:27:41.864Z,75.68
2018-10-07T11:28:42.016Z,76.17
2018-10-07T11:29:42.167Z,75.44
2018-10-07T11:30:42.324Z,76.66
2018-10-07T11:31:42.476Z,74.22
2018-10-07T11:32:42.627Z,75.44
2018-10-07T11:33:42.777Z,74.46
2018-10-07T11:34:42.954Z,74.71
2018-10-07T11:35:43.087Z,74.71
2018-10-07T11:36:43.247Z,74.46
2018-10-07T11:37:43.407Z,74.22
2018-10-07T11:38:43.553Z,75.44
2018-10-07T11:39:43.705Z,74.46
2018-10-07T11:40:44.039Z,74.46
2018-10-07T11:41:44.039Z,75.93
2018-10-07T11:42:44.194Z,73.49
2018-10-07T11:43:44.348Z,75.44
2018-10-07T11:44:44.501Z,74.22
2018-10-07T11:45:44.710Z,73.97
2018-10-07T11:46:44.750Z,74.71
2018-10-07T11:47:44.900Z,75.68
2018-10-07T11:48:45.062Z,75.44
2018-10-07T11:49:45.212Z,73.49
2018-10-07T11:50:45.365Z,74.71
2018-10-07T11:51:45.545Z,73.49
2018-10-07T11:52:45.714Z,73.73
2018-10-07T11:53:45.858Z,75.44
2018-10-07T11:54:46.017Z,76.17
2018-10-07T11:55:46.170Z,76.90
2018-10-07T11:56:46.337Z,74.95
2018-10-07T11:57:46.491Z,74.22
2018-10-07T11:58:46.642Z,74.22
2018-10-07T11:59:46.796Z,75.20
2018-10-07T12:00:46.966Z,77.88
2018-10-07T12:01:47.166Z,74.71
2018-10-07T12:02:47.403Z,74.95
2018-10-07T12:03:47.495Z,75.93
2018-10-07T12:04:47.654Z,75.20
2018-10-07T12:05:47.809Z,75.44
2018-10-07T12:06:47.979Z,74.71
2018-10-07T12:07:48.131Z,75.44
2018-10-07T12:08:48.288Z,76.17
2018-10-07T12:09:48.459Z,73.97
2018-10-07T12:10:48.609Z,75.68
2018-10-07T12:11:48.761Z,75.20
2018-10-07T12:12:48.949Z,73.97
2018-10-07T12:13:49.129Z,74.46
2018-10-07T12:14:49.299Z,73.97
2018-10-07T12:15:49.456Z,73.73
2018-10-07T12:16:49.609Z,75.93
2018-10-07T12:17:49.766Z,78.61
2018-10-07T12:18:50.001Z,75.44
2018-10-07T12:19:50.038Z,75.68
2018-10-07T12:20:50.190Z,77.64
2018-10-07T12:21:50.404Z,74.95
2018-10-07T12:22:50.513Z,75.93
2018-10-07T12:23:50.555Z,74.71
2018-10-07T12:24:50.743Z,73.97
2018-10-07T12:25:50.965Z,75.68
2018-10-07T12:26:51.000Z,75.93
2018-10-07T12:27:51.194Z,74.22
2018-10-07T12:28:51.417Z,77.15
2018-10-07T12:29:51.513Z,75.93
2018-10-07T12:30:51.668Z,75.20
2018-10-07T12:31:51.814Z,78.13
2018-10-07T12:32:51.970Z,76.90
2018-10-07T12:33:52.132Z,77.15
2018-10-07T12:34:52.274Z,74.71
2018-10-07T12:35:52.423Z,75.44
2018-10-07T12:36:52.575Z,74.71
2018-10-07T12:37:52.726Z,74.95
2018-10-07T12:38:52.881Z,74.95
2018-10-07T12:39:53.044Z,88.62
2018-10-07T12:40:53.207Z,77.15
2018-10-07T12:41:53.386Z,73.73
2018-10-07T12:42:53.543Z,73.97
2018-10-07T12:43:53.704Z,74.22
2018-10-07T12:44:53.871Z,82.03
2018-10-07T12:45:54.002Z,74.71
2018-10-07T12:46:54.154Z,74.71
2018-10-07T12:47:54.303Z,80.32
2018-10-07T12:48:54.457Z,77.64
2018-10-07T12:49:54.611Z,77.88
2018-10-07T12:50:54.761Z,74.71
2018-10-07T12:51:54.913Z,74.46
2018-10-07T12:52:55.083Z,75.44
2018-10-07T12:53:55.248Z,81.79
2018-10-07T12:54:55.389Z,76.42